sensor_id;sensor_type;location;lat;lon;timestamp;temperature;humidity
5962;DHT22;3007;50.770;0.250;2024-01-15T00:02:11;4.10;99.90
5962;DHT22;3007;50.770;0.250;2024-01-15T00:04:38;4.00;99.90
5962;DHT22;3007;50.770;0.250;2024-01-15T00:07:05;4.10;99.90
5962;DHT22;3007;50.770;0.250;2024-01-15T00:09:32;4.00;99.90
5962;DHT22;3007;50.770;0.250;2024-01-15T00:12:01;4.00;99.90
5962;DHT22;3007;50.770;0.250;2024-01-15T00:14:28;4.00;99.90
5962;DHT22;3007;50.770;0.250;2024-01-15T00:16:55;4.00;99.90
5962;DHT22;3007;50.770;0.250;2024-01-15T00:19:22;4.00;99.90
5962;DHT22;3007;50.770;0.250;2024-01-15T00:21:49;4.00;99.90
5962;DHT22;3007;50.770;0.250;2024-01-15T00:24:16;4.00;99.90
5962;DHT22;3007;50.770;0.250;2024-01-15T00:26:43;4.00;99.90
5962;DHT22;3007;50.770;0.250;2024-01-15T00:29:11;3.90;99.90
5962;DHT22;3007;50.770;0.250;2024-01-15T00:31:38;3.90;99.90
5962;DHT22;3007;50.770;0.250;2024-01-15T00:34:05;3.90;99.90
5962;DHT22;3007;50.770;0.250;2024-01-15T00:36:32;3.90;99.90
5962;DHT22;3007;50.770;0.250;2024-01-15T00:38:59;3.90;99.90
5962;DHT22;3007;50.770;0.250;2024-01-15T00:41:25;3.90;99.90
5962;DHT22;3007;50.770;0.250;2024-01-15T00:43:53;3.90;99.90
5962;DHT22;3007;50.770;0.250;2024-01-15T00:46:22;3.80;99.90
5962;DHT22;3007;50.770;0.250;2024-01-15T00:48:48;3.80;99.90
5962;DHT22;3007;50.770;0.250;2024-01-15T00:51:15;3.80;99.90
5962;DHT22;3007;50.770;0.250;2024-01-15T00:53:42;3.70;99.90
5962;DHT22;3007;50.770;0.250;2024-01-15T00:56:09;3.70;99.90
5962;DHT22;3007;50.770;0.250;2024-01-15T00:58:36;3.70;99.90
5962;DHT22;3007;50.770;0.250;2024-01-15T01:01:03;3.70;99.90
5962;DHT22;3007;50.770;0.250;2024-01-15T01:03:31;3.60;99.90
5962;DHT22;3007;50.770;0.250;2024-01-15T01:05:58;3.50;99.90
5962;DHT22;3007;50.770;0.250;2024-01-15T01:08:25;3.50;99.90
5962;DHT22;3007;50.770;0.250;2024-01-15T01:10:51;3.50;99.90
5962;DHT22;3007;50.770;0.250;2024-01-15T01:13:18;3.40;99.90
5962;DHT22;3007;50.770;0.250;2024-01-15T01:15:45;3.40;99.90
5962;DHT22;3007;50.770;0.250;2024-01-15T01:18:12;3.30;99.90
5962;DHT22;3007;50.770;0.250;2024-01-15T01:20:40;3.30;99.90
5962;DHT22;3007;50.770;0.250;2024-01-15T01:23:07;3.20;99.90
5962;DHT22;3007;50.770;0.250;2024-01-15T01:25:34;3.20;99.90
5962;DHT22;3007;50.770;0.250;2024-01-15T01:28:01;3.00;99.90
5962;DHT22;3007;50.770;0.250;2024-01-15T01:30:27;3.00;99.90
5962;DHT22;3007;50.770;0.250;2024-01-15T01:32:54;2.90;99.90
5962;DHT22;3007;50.770;0.250;2024-01-15T01:35:21;2.90;99.90
5962;DHT22;3007;50.770;0.250;2024-01-15T01:37:50;2.80;99.90
5962;DHT22;3007;50.770;0.250;2024-01-15T01:40:16;2.70;99.90
5962;DHT22;3007;50.770;0.250;2024-01-15T01:42:43;2.60;99.90
5962;DHT22;3007;50.770;0.250;2024-01-15T01:45:11;2.50;99.90
5962;DHT22;3007;50.770;0.250;2024-01-15T01:47:38;2.40;99.90
5962;DHT22;3007;50.770;0.250;2024-01-15T01:50:05;2.40;99.90
5962;DHT22;3007;50.770;0.250;2024-01-15T01:52:33;2.20;99.90
5962;DHT22;3007;50.770;0.250;2024-01-15T01:55:02;2.20;99.90
5962;DHT22;3007;50.770;0.250;2024-01-15T01:57:33;2.10;99.90
5962;DHT22;3007;50.770;0.250;2024-01-15T02:00:01;2.00;99.90
5962;DHT22;3007;50.770;0.250;2024-01-15T02:02:29;2.00;99.90
5962;DHT22;3007;50.770;0.250;2024-01-15T02:04:56;1.90;99.90
5962;DHT22;3007;50.770;0.250;2024-01-15T02:07:23;1.90;99.90
5962;DHT22;3007;50.770;0.250;2024-01-15T02:09:50;1.80;99.90
5962;DHT22;3007;50.770;0.250;2024-01-15T02:12:18;1.80;99.90
5962;DHT22;3007;50.770;0.250;2024-01-15T02:14:45;1.80;99.90
5962;DHT22;3007;50.770;0.250;2024-01-15T02:17:12;1.80;99.90
5962;DHT22;3007;50.770;0.250;2024-01-15T02:19:39;1.70;99.90
5962;DHT22;3007;50.770;0.250;2024-01-15T02:22:06;1.70;99.90
5962;DHT22;3007;50.770;0.250;2024-01-15T02:24:34;1.60;99.90
5962;DHT22;3007;50.770;0.250;2024-01-15T02:27:01;1.60;99.90
5962;DHT22;3007;50.770;0.250;2024-01-15T02:29:30;1.50;99.90
5962;DHT22;3007;50.770;0.250;2024-01-15T02:31:57;1.40;99.90
5962;DHT22;3007;50.770;0.250;2024-01-15T02:34:24;1.40;99.90
5962;DHT22;3007;50.770;0.250;2024-01-15T02:36:53;1.30;99.90
5962;DHT22;3007;50.770;0.250;2024-01-15T02:39:20;1.20;99.90
5962;DHT22;3007;50.770;0.250;2024-01-15T02:41:48;1.20;99.90
5962;DHT22;3007;50.770;0.250;2024-01-15T02:44:15;1.20;99.90
5962;DHT22;3007;50.770;0.250;2024-01-15T02:46:42;1.10;99.90
5962;DHT22;3007;50.770;0.250;2024-01-15T02:49:09;1.10;99.90
5962;DHT22;3007;50.770;0.250;2024-01-15T02:51:36;1.00;99.90
5962;DHT22;3007;50.770;0.250;2024-01-15T02:54:02;1.00;99.90
5962;DHT22;3007;50.770;0.250;2024-01-15T02:56:29;0.90;99.90
5962;DHT22;3007;50.770;0.250;2024-01-15T02:58:57;0.90;99.90
5962;DHT22;3007;50.770;0.250;2024-01-15T03:01:24;0.80;99.90
5962;DHT22;3007;50.770;0.250;2024-01-15T03:03:51;0.80;99.90
5962;DHT22;3007;50.770;0.250;2024-01-15T03:06:18;0.80;99.90
5962;DHT22;3007;50.770;0.250;2024-01-15T03:08:45;0.70;99.90
5962;DHT22;3007;50.770;0.250;2024-01-15T03:11:12;0.70;99.90
5962;DHT22;3007;50.770;0.250;2024-01-15T03:13:38;0.70;99.90
5962;DHT22;3007;50.770;0.250;2024-01-15T03:16:07;0.60;99.90
5962;DHT22;3007;50.770;0.250;2024-01-15T03:18:33;0.60;99.90
5962;DHT22;3007;50.770;0.250;2024-01-15T03:21:00;0.60;99.90
5962;DHT22;3007;50.770;0.250;2024-01-15T03:23:27;0.50;99.90
5962;DHT22;3007;50.770;0.250;2024-01-15T03:25:54;0.50;99.90
5962;DHT22;3007;50.770;0.250;2024-01-15T03:28:21;0.50;99.90
5962;DHT22;3007;50.770;0.250;2024-01-15T03:30:48;0.50;99.90
5962;DHT22;3007;50.770;0.250;2024-01-15T03:33:16;0.50;99.90
5962;DHT22;3007;50.770;0.250;2024-01-15T03:35:43;0.40;99.90
5962;DHT22;3007;50.770;0.250;2024-01-15T03:38:09;0.00;99.90
5962;DHT22;3007;50.770;0.250;2024-01-15T03:40:36;0.40;99.90
5962;DHT22;3007;50.770;0.250;2024-01-15T03:43:03;0.40;99.90
5962;DHT22;3007;50.770;0.250;2024-01-15T03:45:30;0.50;99.90
5962;DHT22;3007;50.770;0.250;2024-01-15T03:47:57;0.40;99.90
5962;DHT22;3007;50.770;0.250;2024-01-15T03:50:25;0.30;99.90
5962;DHT22;3007;50.770;0.250;2024-01-15T03:52:52;0.40;99.90
5962;DHT22;3007;50.770;0.250;2024-01-15T03:55:19;0.40;99.90
5962;DHT22;3007;50.770;0.250;2024-01-15T03:57:45;0.40;99.90
5962;DHT22;3007;50.770;0.250;2024-01-15T04:00:14;0.40;99.90
5962;DHT22;3007;50.770;0.250;2024-01-15T04:02:43;0.30;99.90
5962;DHT22;3007;50.770;0.250;2024-01-15T04:05:10;0.30;99.90
5962;DHT22;3007;50.770;0.250;2024-01-15T04:07:38;0.30;99.90
5962;DHT22;3007;50.770;0.250;2024-01-15T04:10:06;0.30;99.90
5962;DHT22;3007;50.770;0.250;2024-01-15T04:12:33;0.30;99.90
5962;DHT22;3007;50.770;0.250;2024-01-15T04:15:01;0.20;99.90
5962;DHT22;3007;50.770;0.250;2024-01-15T04:17:28;0.20;99.90
5962;DHT22;3007;50.770;0.250;2024-01-15T04:19:55;0.30;99.90
5962;DHT22;3007;50.770;0.250;2024-01-15T04:22:23;0.30;99.90
5962;DHT22;3007;50.770;0.250;2024-01-15T04:24:51;0.30;99.90
5962;DHT22;3007;50.770;0.250;2024-01-15T04:27:17;0.30;99.90
5962;DHT22;3007;50.770;0.250;2024-01-15T04:29:44;0.30;99.90
5962;DHT22;3007;50.770;0.250;2024-01-15T04:32:11;0.40;99.90
5962;DHT22;3007;50.770;0.250;2024-01-15T04:34:38;0.30;99.90
5962;DHT22;3007;50.770;0.250;2024-01-15T04:37:05;0.30;99.90
5962;DHT22;3007;50.770;0.250;2024-01-15T04:39:31;0.30;99.90
5962;DHT22;3007;50.770;0.250;2024-01-15T04:42:00;0.30;99.90
5962;DHT22;3007;50.770;0.250;2024-01-15T04:44:26;0.20;99.90
5962;DHT22;3007;50.770;0.250;2024-01-15T04:46:53;0.20;99.90
5962;DHT22;3007;50.770;0.250;2024-01-15T04:49:20;0.20;99.90
5962;DHT22;3007;50.770;0.250;2024-01-15T04:51:47;0.20;99.90
5962;DHT22;3007;50.770;0.250;2024-01-15T04:54:14;0.20;99.90
5962;DHT22;3007;50.770;0.250;2024-01-15T04:56:43;0.20;99.90
5962;DHT22;3007;50.770;0.250;2024-01-15T04:59:11;0.20;99.90
5962;DHT22;3007;50.770;0.250;2024-01-15T05:01:38;0.20;99.90
5962;DHT22;3007;50.770;0.250;2024-01-15T05:04:05;0.20;99.90
5962;DHT22;3007;50.770;0.250;2024-01-15T05:06:32;0.20;99.90
5962;DHT22;3007;50.770;0.250;2024-01-15T05:08:58;0.20;99.90
5962;DHT22;3007;50.770;0.250;2024-01-15T05:11:26;0.30;99.90
5962;DHT22;3007;50.770;0.250;2024-01-15T05:13:52;0.30;99.90
5962;DHT22;3007;50.770;0.250;2024-01-15T05:16:21;0.30;99.90
5962;DHT22;3007;50.770;0.250;2024-01-15T05:18:47;0.30;99.90
5962;DHT22;3007;50.770;0.250;2024-01-15T05:21:14;0.30;99.90
5962;DHT22;3007;50.770;0.250;2024-01-15T05:23:41;0.20;99.90
5962;DHT22;3007;50.770;0.250;2024-01-15T05:26:10;0.20;99.90
5962;DHT22;3007;50.770;0.250;2024-01-15T05:28:37;0.20;99.90
5962;DHT22;3007;50.770;0.250;2024-01-15T05:31:04;0.10;99.90
5962;DHT22;3007;50.770;0.250;2024-01-15T05:33:32;0.10;99.90
5962;DHT22;3007;50.770;0.250;2024-01-15T05:35:59;0.10;99.90
5962;DHT22;3007;50.770;0.250;2024-01-15T05:38:27;0.00;99.90
5962;DHT22;3007;50.770;0.250;2024-01-15T05:40:55;0.00;99.90
5962;DHT22;3007;50.770;0.250;2024-01-15T05:43:22;0.00;99.90
5962;DHT22;3007;50.770;0.250;2024-01-15T05:45:49;0.00;99.90
5962;DHT22;3007;50.770;0.250;2024-01-15T05:48:16;0.00;99.90
5962;DHT22;3007;50.770;0.250;2024-01-15T05:50:44;-0.10;99.90
5962;DHT22;3007;50.770;0.250;2024-01-15T05:53:11;-0.10;99.90
5962;DHT22;3007;50.770;0.250;2024-01-15T05:55:38;-0.10;99.90
5962;DHT22;3007;50.770;0.250;2024-01-15T05:58:04;-0.10;99.90
5962;DHT22;3007;50.770;0.250;2024-01-15T06:00:35;-0.10;99.90
5962;DHT22;3007;50.770;0.250;2024-01-15T06:03:04;-0.10;99.90
5962;DHT22;3007;50.770;0.250;2024-01-15T06:05:30;-0.10;99.90
5962;DHT22;3007;50.770;0.250;2024-01-15T06:07:59;-0.10;99.90
5962;DHT22;3007;50.770;0.250;2024-01-15T06:10:25;-0.10;99.90
5962;DHT22;3007;50.770;0.250;2024-01-15T06:12:52;-0.10;99.90
5962;DHT22;3007;50.770;0.250;2024-01-15T06:15:19;-0.10;99.90
5962;DHT22;3007;50.770;0.250;2024-01-15T06:17:46;-0.10;99.90
5962;DHT22;3007;50.770;0.250;2024-01-15T06:20:13;-0.10;99.90
5962;DHT22;3007;50.770;0.250;2024-01-15T06:22:40;-0.10;99.90
5962;DHT22;3007;50.770;0.250;2024-01-15T06:25:09;-0.10;99.90
5962;DHT22;3007;50.770;0.250;2024-01-15T06:27:35;-0.20;99.90
5962;DHT22;3007;50.770;0.250;2024-01-15T06:30:03;-0.10;99.90
5962;DHT22;3007;50.770;0.250;2024-01-15T06:32:30;-0.20;99.90
5962;DHT22;3007;50.770;0.250;2024-01-15T06:34:57;-0.20;99.90
5962;DHT22;3007;50.770;0.250;2024-01-15T06:37:23;-0.20;99.90
5962;DHT22;3007;50.770;0.250;2024-01-15T06:39:50;-0.20;99.90
5962;DHT22;3007;50.770;0.250;2024-01-15T06:42:18;-0.20;99.90
5962;DHT22;3007;50.770;0.250;2024-01-15T06:44:47;-0.20;99.90
5962;DHT22;3007;50.770;0.250;2024-01-15T06:47:14;-0.20;99.90
5962;DHT22;3007;50.770;0.250;2024-01-15T06:49:42;-0.20;99.90
5962;DHT22;3007;50.770;0.250;2024-01-15T06:52:09;-0.10;99.90
5962;DHT22;3007;50.770;0.250;2024-01-15T06:54:37;-0.10;99.90
5962;DHT22;3007;50.770;0.250;2024-01-15T06:57:05;0.00;99.90
5962;DHT22;3007;50.770;0.250;2024-01-15T06:59:37;0.00;99.90
5962;DHT22;3007;50.770;0.250;2024-01-15T07:02:04;-0.10;99.90
5962;DHT22;3007;50.770;0.250;2024-01-15T07:04:31;0.00;99.90
5962;DHT22;3007;50.770;0.250;2024-01-15T07:06:57;-0.10;99.90
5962;DHT22;3007;50.770;0.250;2024-01-15T07:09:24;-0.10;99.90
5962;DHT22;3007;50.770;0.250;2024-01-15T07:11:51;0.00;99.90
5962;DHT22;3007;50.770;0.250;2024-01-15T07:14:18;-0.10;99.90
5962;DHT22;3007;50.770;0.250;2024-01-15T07:16:46;0.00;99.90
5962;DHT22;3007;50.770;0.250;2024-01-15T07:19:13;-0.10;99.90
5962;DHT22;3007;50.770;0.250;2024-01-15T07:21:40;-0.10;99.90
5962;DHT22;3007;50.770;0.250;2024-01-15T07:24:08;-0.10;99.90
5962;DHT22;3007;50.770;0.250;2024-01-15T07:26:36;-0.10;99.90
5962;DHT22;3007;50.770;0.250;2024-01-15T07:29:02;-0.10;99.90
5962;DHT22;3007;50.770;0.250;2024-01-15T07:31:29;-0.10;99.90
5962;DHT22;3007;50.770;0.250;2024-01-15T07:33:57;-0.10;99.90
5962;DHT22;3007;50.770;0.250;2024-01-15T07:36:25;-0.10;99.90
5962;DHT22;3007;50.770;0.250;2024-01-15T07:38:52;-0.10;99.90
5962;DHT22;3007;50.770;0.250;2024-01-15T07:41:19;-0.20;99.90
5962;DHT22;3007;50.770;0.250;2024-01-15T07:43:46;-0.10;99.90
5962;DHT22;3007;50.770;0.250;2024-01-15T07:46:12;-0.10;99.90
5962;DHT22;3007;50.770;0.250;2024-01-15T07:48:39;-0.20;99.90
5962;DHT22;3007;50.770;0.250;2024-01-15T07:51:07;-0.10;99.90
5962;DHT22;3007;50.770;0.250;2024-01-15T07:53:34;-0.10;99.90
5962;DHT22;3007;50.770;0.250;2024-01-15T07:56:01;-0.10;99.90
5962;DHT22;3007;50.770;0.250;2024-01-15T07:58:28;-0.10;99.90
5962;DHT22;3007;50.770;0.250;2024-01-15T08:00:55;-0.10;99.90
5962;DHT22;3007;50.770;0.250;2024-01-15T08:03:21;-0.10;99.90
5962;DHT22;3007;50.770;0.250;2024-01-15T08:05:48;-0.10;99.90
5962;DHT22;3007;50.770;0.250;2024-01-15T08:08:19;-0.10;99.90
5962;DHT22;3007;50.770;0.250;2024-01-15T08:10:46;-0.10;99.90
5962;DHT22;3007;50.770;0.250;2024-01-15T08:13:13;-0.10;99.90
5962;DHT22;3007;50.770;0.250;2024-01-15T08:15:41;-0.10;99.90
5962;DHT22;3007;50.770;0.250;2024-01-15T08:18:08;-0.10;99.90
5962;DHT22;3007;50.770;0.250;2024-01-15T08:20:34;0.00;99.90
5962;DHT22;3007;50.770;0.250;2024-01-15T08:23:02;-0.10;99.90
5962;DHT22;3007;50.770;0.250;2024-01-15T08:25:30;-0.10;99.90
5962;DHT22;3007;50.770;0.250;2024-01-15T08:27:57;-0.10;99.90
5962;DHT22;3007;50.770;0.250;2024-01-15T08:30:24;-0.10;99.90
5962;DHT22;3007;50.770;0.250;2024-01-15T08:32:53;-0.10;99.90
5962;DHT22;3007;50.770;0.250;2024-01-15T08:35:20;0.00;99.90
5962;DHT22;3007;50.770;0.250;2024-01-15T08:37:48;-0.10;99.90
5962;DHT22;3007;50.770;0.250;2024-01-15T08:40:15;0.00;99.90
5962;DHT22;3007;50.770;0.250;2024-01-15T08:42:43;0.00;99.90
5962;DHT22;3007;50.770;0.250;2024-01-15T08:45:11;0.00;99.90
5962;DHT22;3007;50.770;0.250;2024-01-15T08:47:38;0.00;99.90
5962;DHT22;3007;50.770;0.250;2024-01-15T08:50:06;0.00;99.90
5962;DHT22;3007;50.770;0.250;2024-01-15T08:52:35;0.00;99.90
5962;DHT22;3007;50.770;0.250;2024-01-15T08:55:03;0.00;99.90
5962;DHT22;3007;50.770;0.250;2024-01-15T08:57:30;0.00;99.90
5962;DHT22;3007;50.770;0.250;2024-01-15T09:00:00;0.00;99.90
5962;DHT22;3007;50.770;0.250;2024-01-15T09:02:28;-0.10;99.90
5962;DHT22;3007;50.770;0.250;2024-01-15T09:04:54;0.00;99.90
5962;DHT22;3007;50.770;0.250;2024-01-15T09:07:21;-0.10;99.90
5962;DHT22;3007;50.770;0.250;2024-01-15T09:09:48;-0.10;99.90
5962;DHT22;3007;50.770;0.250;2024-01-15T09:12:15;0.00;99.90
5962;DHT22;3007;50.770;0.250;2024-01-15T09:14:44;0.00;99.90
5962;DHT22;3007;50.770;0.250;2024-01-15T09:17:12;0.00;99.90
5962;DHT22;3007;50.770;0.250;2024-01-15T09:19:39;0.00;99.90
5962;DHT22;3007;50.770;0.250;2024-01-15T09:22:06;0.00;99.90
5962;DHT22;3007;50.770;0.250;2024-01-15T09:24:32;-0.10;99.90
5962;DHT22;3007;50.770;0.250;2024-01-15T09:26:59;0.00;99.90
5962;DHT22;3007;50.770;0.250;2024-01-15T09:29:26;0.00;99.90
5962;DHT22;3007;50.770;0.250;2024-01-15T09:31:53;0.00;99.90
5962;DHT22;3007;50.770;0.250;2024-01-15T09:34:21;0.00;99.90
5962;DHT22;3007;50.770;0.250;2024-01-15T09:36:48;0.00;99.90
5962;DHT22;3007;50.770;0.250;2024-01-15T09:39:19;0.00;99.90
5962;DHT22;3007;50.770;0.250;2024-01-15T09:41:46;0.00;99.90
5962;DHT22;3007;50.770;0.250;2024-01-15T09:44:14;0.10;99.90
5962;DHT22;3007;50.770;0.250;2024-01-15T09:46:42;0.10;99.90
5962;DHT22;3007;50.770;0.250;2024-01-15T09:49:10;0.10;99.90
5962;DHT22;3007;50.770;0.250;2024-01-15T09:51:39;0.10;99.90
5962;DHT22;3007;50.770;0.250;2024-01-15T09:54:07;0.20;99.90
5962;DHT22;3007;50.770;0.250;2024-01-15T09:56:34;0.20;99.90
5962;DHT22;3007;50.770;0.250;2024-01-15T09:59:01;0.20;99.90
5962;DHT22;3007;50.770;0.250;2024-01-15T10:01:31;0.30;99.90
5962;DHT22;3007;50.770;0.250;2024-01-15T10:03:58;0.30;99.90
5962;DHT22;3007;50.770;0.250;2024-01-15T10:06:27;0.30;99.90
5962;DHT22;3007;50.770;0.250;2024-01-15T10:09:00;0.30;99.90
5962;DHT22;3007;50.770;0.250;2024-01-15T10:11:30;0.40;99.90
5962;DHT22;3007;50.770;0.250;2024-01-15T10:13:57;0.40;99.90
5962;DHT22;3007;50.770;0.250;2024-01-15T10:16:24;0.40;99.90
5962;DHT22;3007;50.770;0.250;2024-01-15T10:18:52;0.40;99.90
5962;DHT22;3007;50.770;0.250;2024-01-15T10:21:18;0.30;99.90
5962;DHT22;3007;50.770;0.250;2024-01-15T10:23:45;0.50;99.90
5962;DHT22;3007;50.770;0.250;2024-01-15T10:26:15;0.50;99.90
5962;DHT22;3007;50.770;0.250;2024-01-15T10:28:42;0.60;99.90
5962;DHT22;3007;50.770;0.250;2024-01-15T10:31:09;0.60;99.90
5962;DHT22;3007;50.770;0.250;2024-01-15T10:33:37;0.70;99.90
5962;DHT22;3007;50.770;0.250;2024-01-15T10:36:09;0.70;99.90
5962;DHT22;3007;50.770;0.250;2024-01-15T10:38:36;0.80;99.90
5962;DHT22;3007;50.770;0.250;2024-01-15T10:41:03;0.90;99.90
5962;DHT22;3007;50.770;0.250;2024-01-15T10:43:32;0.90;99.90
5962;DHT22;3007;50.770;0.250;2024-01-15T10:46:00;1.00;99.90
5962;DHT22;3007;50.770;0.250;2024-01-15T10:48:29;1.00;99.90
5962;DHT22;3007;50.770;0.250;2024-01-15T10:50:57;1.10;99.90
5962;DHT22;3007;50.770;0.250;2024-01-15T10:53:24;1.10;99.90
5962;DHT22;3007;50.770;0.250;2024-01-15T10:55:54;1.10;99.90
5962;DHT22;3007;50.770;0.250;2024-01-15T10:58:23;1.10;99.90
5962;DHT22;3007;50.770;0.250;2024-01-15T11:00:52;1.10;99.90
5962;DHT22;3007;50.770;0.250;2024-01-15T11:03:19;1.20;99.90
5962;DHT22;3007;50.770;0.250;2024-01-15T11:05:46;1.20;99.90
5962;DHT22;3007;50.770;0.250;2024-01-15T11:08:17;1.30;99.90
5962;DHT22;3007;50.770;0.250;2024-01-15T11:10:45;1.30;99.90
5962;DHT22;3007;50.770;0.250;2024-01-15T11:13:14;1.30;99.90
5962;DHT22;3007;50.770;0.250;2024-01-15T11:16:00;1.30;99.90
5962;DHT22;3007;50.770;0.250;2024-01-15T11:18:29;1.30;99.90
5962;DHT22;3007;50.770;0.250;2024-01-15T11:21:21;1.30;99.90
5962;DHT22;3007;50.770;0.250;2024-01-15T11:23:50;1.30;99.90
5962;DHT22;3007;50.770;0.250;2024-01-15T11:26:34;1.40;99.90
5962;DHT22;3007;50.770;0.250;2024-01-15T11:29:02;1.40;99.90
5962;DHT22;3007;50.770;0.250;2024-01-15T11:31:58;1.40;99.90
5962;DHT22;3007;50.770;0.250;2024-01-15T11:34:51;1.40;99.90
5962;DHT22;3007;50.770;0.250;2024-01-15T11:37:19;1.40;99.90
5962;DHT22;3007;50.770;0.250;2024-01-15T11:39:47;1.50;99.90
5962;DHT22;3007;50.770;0.250;2024-01-15T11:42:14;1.50;99.90
5962;DHT22;3007;50.770;0.250;2024-01-15T11:44:41;1.50;99.90
5962;DHT22;3007;50.770;0.250;2024-01-15T11:47:10;2.60;99.90
5962;DHT22;3007;50.770;0.250;2024-01-15T11:49:58;1.60;99.90
5962;DHT22;3007;50.770;0.250;2024-01-15T11:52:26;1.60;99.90
5962;DHT22;3007;50.770;0.250;2024-01-15T11:55:10;1.60;99.90
5962;DHT22;3007;50.770;0.250;2024-01-15T11:57:41;1.60;99.90
5962;DHT22;3007;50.770;0.250;2024-01-15T12:00:10;1.70;99.90
5962;DHT22;3007;50.770;0.250;2024-01-15T12:02:42;1.70;99.90
5962;DHT22;3007;50.770;0.250;2024-01-15T12:05:10;1.70;99.90
5962;DHT22;3007;50.770;0.250;2024-01-15T12:07:38;1.70;99.90
5962;DHT22;3007;50.770;0.250;2024-01-15T12:10:09;1.70;99.90
5962;DHT22;3007;50.770;0.250;2024-01-15T12:12:52;1.70;99.90
5962;DHT22;3007;50.770;0.250;2024-01-15T12:15:20;1.80;99.90
5962;DHT22;3007;50.770;0.250;2024-01-15T12:17:48;1.80;99.90
5962;DHT22;3007;50.770;0.250;2024-01-15T12:20:15;1.80;99.90
5962;DHT22;3007;50.770;0.250;2024-01-15T12:22:50;1.90;99.90
5962;DHT22;3007;50.770;0.250;2024-01-15T12:25:16;2.60;99.90
5962;DHT22;3007;50.770;0.250;2024-01-15T12:27:46;1.90;99.90
5962;DHT22;3007;50.770;0.250;2024-01-15T12:30:14;1.90;99.90
5962;DHT22;3007;50.770;0.250;2024-01-15T12:32:42;1.90;99.90
5962;DHT22;3007;50.770;0.250;2024-01-15T12:35:10;1.80;99.90
5962;DHT22;3007;50.770;0.250;2024-01-15T12:37:41;1.80;99.90
5962;DHT22;3007;50.770;0.250;2024-01-15T12:40:10;2.70;99.90
5962;DHT22;3007;50.770;0.250;2024-01-15T12:42:40;1.80;99.90
5962;DHT22;3007;50.770;0.250;2024-01-15T12:45:08;1.70;99.90
5962;DHT22;3007;50.770;0.250;2024-01-15T12:47:36;1.70;99.90
5962;DHT22;3007;50.770;0.250;2024-01-15T12:50:07;1.80;99.90
5962;DHT22;3007;50.770;0.250;2024-01-15T12:52:35;1.80;99.90
5962;DHT22;3007;50.770;0.250;2024-01-15T12:55:04;1.80;99.90
5962;DHT22;3007;50.770;0.250;2024-01-15T12:57:31;1.80;99.90
5962;DHT22;3007;50.770;0.250;2024-01-15T12:59:59;1.80;99.90
5962;DHT22;3007;50.770;0.250;2024-01-15T13:02:27;1.80;99.90
5962;DHT22;3007;50.770;0.250;2024-01-15T13:04:54;1.90;99.90
5962;DHT22;3007;50.770;0.250;2024-01-15T13:07:21;1.90;99.90
5962;DHT22;3007;50.770;0.250;2024-01-15T13:09:50;1.90;99.90
5962;DHT22;3007;50.770;0.250;2024-01-15T13:12:19;1.80;99.90
5962;DHT22;3007;50.770;0.250;2024-01-15T13:14:46;1.80;99.90
5962;DHT22;3007;50.770;0.250;2024-01-15T13:17:13;1.80;99.90
5962;DHT22;3007;50.770;0.250;2024-01-15T13:19:40;1.80;99.90
5962;DHT22;3007;50.770;0.250;2024-01-15T13:22:07;1.80;99.90
5962;DHT22;3007;50.770;0.250;2024-01-15T13:24:34;1.80;99.90
5962;DHT22;3007;50.770;0.250;2024-01-15T13:27:04;1.80;99.90
5962;DHT22;3007;50.770;0.250;2024-01-15T13:29:31;1.80;99.90
5962;DHT22;3007;50.770;0.250;2024-01-15T13:31:59;1.70;99.90
5962;DHT22;3007;50.770;0.250;2024-01-15T13:34:26;1.70;99.90
5962;DHT22;3007;50.770;0.250;2024-01-15T13:36:53;1.80;99.90
5962;DHT22;3007;50.770;0.250;2024-01-15T13:39:20;1.80;99.90
5962;DHT22;3007;50.770;0.250;2024-01-15T13:41:47;1.80;99.90
5962;DHT22;3007;50.770;0.250;2024-01-15T13:44:16;1.70;99.90
5962;DHT22;3007;50.770;0.250;2024-01-15T13:46:42;1.70;99.90
5962;DHT22;3007;50.770;0.250;2024-01-15T13:49:09;1.70;99.90
5962;DHT22;3007;50.770;0.250;2024-01-15T13:51:36;1.70;99.90
5962;DHT22;3007;50.770;0.250;2024-01-15T13:54:03;1.70;97.30
5962;DHT22;3007;50.770;0.250;2024-01-15T13:56:31;1.70;99.90
5962;DHT22;3007;50.770;0.250;2024-01-15T13:58:58;1.70;99.90
5962;DHT22;3007;50.770;0.250;2024-01-15T14:01:27;1.70;99.90
5962;DHT22;3007;50.770;0.250;2024-01-15T14:03:54;1.60;99.90
5962;DHT22;3007;50.770;0.250;2024-01-15T14:06:21;1.60;99.90
5962;DHT22;3007;50.770;0.250;2024-01-15T14:08:48;1.60;99.90
5962;DHT22;3007;50.770;0.250;2024-01-15T14:11:15;1.60;99.90
5962;DHT22;3007;50.770;0.250;2024-01-15T14:13:41;1.60;99.90
5962;DHT22;3007;50.770;0.250;2024-01-15T14:16:08;1.50;99.90
5962;DHT22;3007;50.770;0.250;2024-01-15T14:18:37;1.50;99.90
5962;DHT22;3007;50.770;0.250;2024-01-15T14:21:04;1.50;99.90
5962;DHT22;3007;50.770;0.250;2024-01-15T14:23:31;1.50;99.90
5962;DHT22;3007;50.770;0.250;2024-01-15T14:25:58;1.50;99.90
5962;DHT22;3007;50.770;0.250;2024-01-15T14:28:25;1.50;99.90
5962;DHT22;3007;50.770;0.250;2024-01-15T14:30:52;1.50;99.90
5962;DHT22;3007;50.770;0.250;2024-01-15T14:33:18;1.40;99.90
5962;DHT22;3007;50.770;0.250;2024-01-15T14:35:47;2.30;99.90
5962;DHT22;3007;50.770;0.250;2024-01-15T14:38:17;1.40;99.90
5962;DHT22;3007;50.770;0.250;2024-01-15T14:40:44;1.40;99.90
5962;DHT22;3007;50.770;0.250;2024-01-15T14:43:11;1.40;99.90
5962;DHT22;3007;50.770;0.250;2024-01-15T14:45:38;1.30;99.90
5962;DHT22;3007;50.770;0.250;2024-01-15T14:48:05;1.30;99.90
5962;DHT22;3007;50.770;0.250;2024-01-15T14:50:32;1.30;99.90
5962;DHT22;3007;50.770;0.250;2024-01-15T14:53:00;1.30;99.90
5962;DHT22;3007;50.770;0.250;2024-01-15T14:55:26;1.20;99.90
5962;DHT22;3007;50.770;0.250;2024-01-15T14:57:53;1.10;99.90
5962;DHT22;3007;50.770;0.250;2024-01-15T15:00:20;1.00;99.90
5962;DHT22;3007;50.770;0.250;2024-01-15T15:02:48;1.00;99.90
5962;DHT22;3007;50.770;0.250;2024-01-15T15:05:15;0.90;99.90
5962;DHT22;3007;50.770;0.250;2024-01-15T15:07:43;0.90;99.90
5962;DHT22;3007;50.770;0.250;2024-01-15T15:10:11;0.80;99.90
5962;DHT22;3007;50.770;0.250;2024-01-15T15:12:38;0.80;99.90
5962;DHT22;3007;50.770;0.250;2024-01-15T15:15:05;0.80;99.90
5962;DHT22;3007;50.770;0.250;2024-01-15T15:17:34;0.80;99.90
5962;DHT22;3007;50.770;0.250;2024-01-15T15:20:01;0.70;99.90
5962;DHT22;3007;50.770;0.250;2024-01-15T15:22:29;0.60;99.90
5962;DHT22;3007;50.770;0.250;2024-01-15T15:24:55;0.60;99.90
5962;DHT22;3007;50.770;0.250;2024-01-15T15:27:23;0.50;99.90
5962;DHT22;3007;50.770;0.250;2024-01-15T15:29:52;0.40;99.90
5962;DHT22;3007;50.770;0.250;2024-01-15T15:32:19;0.30;99.90
5962;DHT22;3007;50.770;0.250;2024-01-15T15:34:46;0.30;99.90
5962;DHT22;3007;50.770;0.250;2024-01-15T15:37:13;0.20;99.90
5962;DHT22;3007;50.770;0.250;2024-01-15T15:39:42;0.20;99.90
5962;DHT22;3007;50.770;0.250;2024-01-15T15:42:09;0.20;99.90
5962;DHT22;3007;50.770;0.250;2024-01-15T15:44:37;0.10;99.90
5962;DHT22;3007;50.770;0.250;2024-01-15T15:47:08;0.10;99.90
5962;DHT22;3007;50.770;0.250;2024-01-15T15:49:36;0.10;99.90
5962;DHT22;3007;50.770;0.250;2024-01-15T15:52:03;0.00;99.90
5962;DHT22;3007;50.770;0.250;2024-01-15T15:54:30;0.00;99.90
5962;DHT22;3007;50.770;0.250;2024-01-15T15:56:57;-0.10;99.90
5962;DHT22;3007;50.770;0.250;2024-01-15T15:59:23;-0.10;99.90
5962;DHT22;3007;50.770;0.250;2024-01-15T16:01:52;-0.20;99.90
5962;DHT22;3007;50.770;0.250;2024-01-15T16:04:18;-0.20;99.90
5962;DHT22;3007;50.770;0.250;2024-01-15T16:06:46;-0.30;99.90
5962;DHT22;3007;50.770;0.250;2024-01-15T16:09:13;-0.30;99.90
5962;DHT22;3007;50.770;0.250;2024-01-15T16:11:40;-0.30;99.90
5962;DHT22;3007;50.770;0.250;2024-01-15T16:14:07;-0.80;99.90
5962;DHT22;3007;50.770;0.250;2024-01-15T16:16:35;-0.40;99.90
5962;DHT22;3007;50.770;0.250;2024-01-15T16:19:08;-0.40;99.90